Time;durP1;ratioP1;P1;durP2;ratioP2;P2;SDS_P1;SDS_P2;PMS_P1;PMS_P2;Temp;Humidity;BMP_temperature;BMP_pressure;BME280_temperature;BME280_humidity;BME280_pressure;Samples;Min_cycle;Max_cycle;Signal;HPM_P1;HPM_P2
2022/04/06 00:02:09;;;;;;;19.27;15.33;;;;;;;5.97;86.43;97575.55;2254629;79;20943;-82
2022/04/06 00:05:10;;;;;;;20.73;15.53;;;;;;;6.02;86.38;97566.09;2254236;79;20986;-82
2022/04/06 00:08:10;;;;;;;19.70;13.93;;;;;;;6.05;86.11;97561.81;2254453;79;20994;-82
2022/04/06 00:11:11;;;;;;;15.93;13.57;;;;;;;6.10;86.30;97567.49;2254319;78;21046;-82
2022/04/06 00:14:12;;;;;;;17.17;13.77;;;;;;;6.08;85.90;97553.23;2254361;79;21402;-82
2022/04/06 00:17:13;;;;;;;20.30;13.87;;;;;;;6.10;85.80;97554.11;2254411;79;20970;-82
2022/04/06 00:20:17;;;;;;;16.30;12.97;;;;;;;6.12;85.97;97553.70;2254317;79;20954;-83
2022/04/06 00:23:18;;;;;;;14.30;12.17;;;;;;;6.17;85.86;97552.02;2253650;79;20975;-82
2022/04/06 00:26:18;;;;;;;15.70;12.60;;;;;;;6.20;85.68;97550.74;2254592;79;20970;-81
2022/04/06 00:29:19;;;;;;;15.50;11.70;;;;;;;6.23;85.72;97553.36;2254334;79;20942;-81
2022/04/06 00:32:20;;;;;;;15.33;12.43;;;;;;;6.27;85.76;97560.30;2254443;79;20971;-82
2022/04/06 00:35:29;;;;;;;13.43;11.70;;;;;;;6.30;85.51;97555.14;2254212;79;21314;-83
2022/04/06 00:38:30;;;;;;;13.97;12.47;;;;;;;6.33;85.44;97563.38;2254069;79;21359;-82
2022/04/06 00:41:30;;;;;;;14.70;12.33;;;;;;;6.35;85.33;97560.37;2254471;79;20939;-83
2022/04/06 00:44:34;;;;;;;14.07;11.20;;;;;;;6.40;85.25;97565.16;2254762;79;21406;-82
2022/04/06 00:47:33;;;;;;;13.23;11.63;;;;;;;6.41;85.25;97555.66;2254235;79;21002;-82
2022/04/06 00:50:34;;;;;;;14.53;11.07;;;;;;;6.44;85.15;97550.06;2254576;79;20939;-83
2022/04/06 00:53:36;;;;;;;14.53;12.13;;;;;;;6.46;85.08;97550.95;2254316;79;21354;-83
2022/04/06 00:56:37;;;;;;;13.97;12.47;;;;;;;6.48;84.94;97554.84;2254800;79;21282;-82
2022/04/06 00:59:37;;;;;;;14.50;12.67;;;;;;;6.50;84.92;97555.30;2254687;79;20927;-82
2022/04/06 01:02:38;;;;;;;13.53;11.97;;;;;;;6.50;84.84;97550.11;2254258;79;20938;-83
2022/04/06 01:05:38;;;;;;;15.80;12.27;;;;;;;6.52;84.87;97548.39;2254714;79;21267;-82
2022/04/06 01:08:39;;;;;;;13.13;11.73;;;;;;;6.54;84.72;97547.11;2254815;79;21326;-82
2022/04/06 01:11:39;;;;;;;12.33;11.07;;;;;;;6.55;84.59;97543.23;2253997;79;21002;-83
2022/04/06 01:14:40;;;;;;;14.60;12.93;;;;;;;6.57;84.64;97555.78;2255104;79;20943;-81
2022/04/06 01:17:40;;;;;;;13.07;11.67;;;;;;;6.59;84.67;97549.31;2254880;79;20982;-83
2022/04/06 01:20:40;;;;;;;12.57;11.23;;;;;;;6.61;84.44;97556.66;2254536;79;20927;-81
2022/04/06 01:23:41;;;;;;;14.53;12.13;;;;;;;6.62;84.46;97557.11;2254627;79;20982;-82
2022/04/06 01:26:42;;;;;;;12.60;11.30;;;;;;;6.64;84.52;97554.09;2254923;79;20983;-82
2022/04/06 01:29:43;;;;;;;13.70;12.30;;;;;;;6.63;84.62;97555.81;2254640;79;20958;-83
2022/04/06 01:32:43;;;;;;;14.47;11.27;;;;;;;6.62;84.81;97554.52;2254686;79;20974;-83
2022/04/06 01:35:43;;;;;;;13.60;11.60;;;;;;;6.61;85.12;97554.08;2254549;79;20919;-83
2022/04/06 01:38:44;;;;;;;14.97;12.13;;;;;;;6.63;85.23;97556.25;2254086;79;21314;-83
2022/04/06 01:41:45;;;;;;;15.10;12.70;;;;;;;6.62;85.47;97555.81;2254539;79;20946;-82
2022/04/06 01:44:45;;;;;;;14.70;12.70;;;;;;;6.61;85.46;97553.64;2254497;79;20935;-83
2022/04/06 01:47:46;;;;;;;13.93;12.53;;;;;;;6.61;85.53;97558.83;2254496;79;20999;-83
2022/04/06 01:54:05;;;;;;;17.37;13.20;;;;;;;6.61;86.17;97565.73;2254455;79;21307;-82
2022/04/06 01:57:06;;;;;;;14.93;13.13;;;;;;;6.61;86.47;97575.69;2254284;79;21018;-83
2022/04/06 02:00:06;;;;;;;16.23;13.20;;;;;;;6.60;86.37;97573.08;2254396;79;21004;-82
2022/04/06 02:03:07;;;;;;;15.57;13.17;;;;;;;6.59;86.99;97569.62;2254392;79;20922;-82
2022/04/06 02:06:07;;;;;;;15.27;13.70;;;;;;;6.62;86.65;97575.25;2254570;79;21378;-82
2022/04/06 02:09:08;;;;;;;16.60;14.30;;;;;;;6.62;87.11;97572.23;2254478;79;21350;-83
2022/04/06 02:12:09;;;;;;;15.70;13.83;;;;;;;6.61;87.25;97571.80;2254292;79;20983;-83
2022/04/06 02:15:10;;;;;;;15.80;13.87;;;;;;;6.61;87.12;97577.41;2254948;79;20950;-84
2022/04/06 02:18:10;;;;;;;13.83;12.40;;;;;;;6.58;87.63;97558.81;2254312;79;20952;-82
2022/04/06 02:21:11;;;;;;;12.53;11.20;;;;;;;6.59;87.78;97558.38;2254931;79;20979;-78
2022/04/06 02:24:12;;;;;;;15.27;13.80;;;;;;;6.59;88.46;97558.38;2254687;79;20947;-84
2022/04/06 02:27:12;;;;;;;13.50;12.20;;;;;;;6.58;87.90;97560.11;2254646;79;20943;-82
2022/04/06 02:30:13;;;;;;;13.33;12.03;;;;;;;6.60;87.91;97557.52;2254455;79;20954;-80
2022/04/06 02:33:14;;;;;;;13.83;12.40;;;;;;;6.60;88.39;97549.75;2254504;79;20990;-82
2022/04/06 02:36:14;;;;;;;15.70;13.57;;;;;;;6.61;88.36;97552.78;2254462;79;20962;-81
2022/04/06 02:39:15;;;;;;;14.20;12.27;;;;;;;6.59;88.33;97556.66;2254600;79;20927;-82
2022/04/06 02:42:15;;;;;;;12.87;11.57;;;;;;;6.59;88.37;97546.72;2254621;79;20954;-81
2022/04/06 02:45:16;;;;;;;13.00;11.70;;;;;;;6.60;88.39;97546.72;2254657;79;21382;-81
2022/04/06 02:48:16;;;;;;;13.03;11.40;;;;;;;6.60;88.95;97548.45;2254752;79;21329;-84
2022/04/06 02:51:16;;;;;;;12.83;11.53;;;;;;;6.60;89.01;97557.52;2254808;79;20982;-83
2022/04/06 02:54:17;;;;;;;56.43;49.47;;;;;;;6.60;89.08;97556.23;2254585;79;20915;-82
2022/04/06 02:57:17;;;;;;;13.27;11.93;;;;;;;6.62;89.45;97560.56;2254574;79;20927;-82
2022/04/06 03:00:18;;;;;;;12.43;11.03;;;;;;;6.62;90.27;97552.78;2254277;79;20963;-82
2022/04/06 03:03:18;;;;;;;11.77;10.67;;;;;;;6.61;90.32;97561.86;2254766;79;20939;-83
2022/04/06 03:06:19;;;;;;;11.67;10.60;;;;;;;6.60;90.61;97557.52;2254259;79;20971;-82
2022/04/06 03:09:19;;;;;;;12.67;11.33;;;;;;;6.61;90.86;97551.48;2254357;79;21369;-82
2022/04/06 03:12:20;;;;;;;11.67;10.57;;;;;;;6.63;90.71;97551.06;2254261;78;21349;-81
2022/04/06 03:15:20;;;;;;;12.57;10.77;;;;;;;6.63;90.68;97538.97;2254677;79;21300;-82
2022/04/06 03:18:23;;;;;;;11.73;10.63;;;;;;;6.64;90.43;97557.55;2255026;79;20926;-82
2022/04/06 03:21:24;;;;;;;11.77;10.77;;;;;;;6.67;90.50;97560.59;2254323;79;21029;-82
2022/04/06 03:24:24;;;;;;;10.60;9.70;;;;;;;6.71;90.80;97561.05;2254031;79;21412;-84
2022/04/06 03:27:25;;;;;;;11.80;10.57;;;;;;;6.75;91.09;97558.05;2253936;79;21385;-81
2022/04/06 03:30:25;;;;;;;12.10;10.97;;;;;;;6.78;91.05;97566.72;2253675;79;21693;-81
2022/04/06 03:33:26;;;;;;;13.70;12.40;;;;;;;6.80;91.14;97568.89;2254391;79;20950;-80
2022/04/06 03:36:26;;;;;;;15.80;14.40;;;;;;;6.83;90.82;97575.40;2254180;79;20999;-80
2022/04/06 03:39:27;;;;;;;11.47;10.37;;;;;;;6.87;90.68;97571.09;2254284;79;20995;-82
2022/04/06 03:42:27;;;;;;;12.40;11.30;;;;;;;6.90;90.92;97579.77;2253172;79;20986;-81
2022/04/06 03:45:28;;;;;;;12.37;11.17;;;;;;;6.94;90.77;97582.85;2252864;79;21394;-82
2022/04/06 03:48:29;;;;;;;12.20;11.00;;;;;;;6.98;90.58;97578.12;2253138;79;21010;-83
2022/04/06 03:51:29;;;;;;;11.30;10.30;;;;;;;7.04;90.17;97585.06;2253806;79;20994;-83
2022/04/06 03:54:30;;;;;;;12.07;10.87;;;;;;;7.06;90.15;97584.64;2253768;79;21275;-82
2022/04/06 03:57:30;;;;;;;11.87;10.73;;;;;;;7.09;90.07;97583.37;2253100;79;21011;-83
2022/04/06 04:00:31;;;;;;;11.90;10.70;;;;;;;7.10;89.71;97585.10;2253293;79;20915;-82
2022/04/06 04:03:31;;;;;;;12.30;11.10;;;;;;;7.13;90.06;97595.92;2254130;79;20946;-82
2022/04/06 04:06:32;;;;;;;13.40;10.27;;;;;;;7.15;89.74;97601.99;2254081;79;20987;-83
2022/04/06 04:09:32;;;;;;;12.20;11.10;;;;;;;7.16;89.68;97610.22;2254409;79;21299;-83
2022/04/06 04:12:33;;;;;;;11.27;10.17;;;;;;;7.17;89.90;97610.66;2254550;79;21018;-83
2022/04/06 04:15:33;;;;;;;11.83;10.67;;;;;;;7.18;89.32;97617.58;2254559;79;20967;-83
2022/04/06 04:18:33;;;;;;;10.77;9.73;;;;;;;7.19;89.38;97598.55;2254688;79;21019;-81
2022/04/06 04:21:34;;;;;;;12.13;10.83;;;;;;;7.20;89.44;97612.84;2253835;79;20900;-83
2022/04/06 04:24:35;;;;;;;11.30;10.30;;;;;;;7.22;89.07;97620.20;2254204;79;20954;-82
2022/04/06 04:27:36;;;;;;;11.13;10.03;;;;;;;7.25;88.94;97622.81;2253644;79;20958;-83
2022/04/06 04:30:36;;;;;;;10.77;9.67;;;;;;;7.28;88.83;97624.13;2253348;79;20946;-82
2022/04/06 04:33:37;;;;;;;11.57;10.47;;;;;;;7.29;89.11;97618.51;2252201;79;20919;-82
2022/04/06 04:36:37;;;;;;;11.50;10.27;;;;;;;7.31;89.01;97621.98;2252862;79;20919;-81
2022/04/06 04:39:38;;;;;;;11.67;10.67;;;;;;;7.33;88.62;97624.15;2254211;79;21325;-83
2022/04/06 04:42:38;;;;;;;12.60;11.40;;;;;;;7.34;88.58;97626.75;2253741;79;21076;-82
2022/04/06 04:45:39;;;;;;;12.10;10.77;;;;;;;7.39;88.31;97622.02;2254726;79;21419;-84
2022/04/06 04:48:39;;;;;;;14.27;12.80;;;;;;;7.44;88.26;97633.29;2254220;79;20915;-81
2022/04/06 04:51:42;;;;;;;12.27;11.07;;;;;;;7.50;87.99;97631.59;2254412;79;20991;-84
2022/04/06 04:54:43;;;;;;;12.07;10.87;;;;;;;7.53;87.62;97634.20;2254071;79;20998;-82
2022/04/06 04:57:43;;;;;;;22.03;19.63;;;;;;;7.53;87.41;97626.84;2254176;79;20939;-82
2022/04/06 05:03:47;;;;;;;12.63;11.43;;;;;;;7.58;87.29;97641.58;2232020;79;20986;-82
2022/04/06 05:06:47;;;;;;;13.53;11.30;;;;;;;7.60;87.09;97645.05;2253493;79;20927;-82
2022/04/06 05:09:49;;;;;;;12.53;11.27;;;;;;;7.64;86.89;97648.09;2253436;79;20946;-83
2022/04/06 05:12:51;;;;;;;12.23;10.93;;;;;;;7.71;86.74;97650.29;2254355;77;21046;-82
2022/04/06 05:15:51;;;;;;;13.77;11.33;;;;;;;7.86;86.41;97654.70;2253312;79;20975;-79
2022/04/06 05:18:52;;;;;;;13.67;11.83;;;;;;;7.86;86.41;97654.70;2252886;79;20931;-81
2022/04/06 05:21:52;;;;;;;13.57;12.17;;;;;;;7.93;86.06;97649.54;2252677;79;20934;-81
2022/04/06 05:24:53;;;;;;;12.53;11.30;;;;;;;8.02;85.80;97662.13;2252401;79;20938;-82
2022/04/06 05:27:54;;;;;;;16.30;12.80;;;;;;;8.09;85.53;97671.67;2252740;79;20999;-82
2022/04/06 05:30:55;;;;;;;20.43;14.60;;;;;;;8.19;85.18;97673.43;2252249;79;21354;-83
2022/04/06 05:33:55;;;;;;;15.07;13.57;;;;;;;8.25;84.99;97673.02;2252061;79;21396;-83
2022/04/06 05:36:56;;;;;;;14.23;12.70;;;;;;;8.27;84.85;97669.98;2252685;79;20931;-82
2022/04/06 05:39:56;;;;;;;12.17;10.47;;;;;;;8.35;84.93;97665.27;2253919;79;20927;-84
2022/04/06 05:42:57;;;;;;;13.33;11.93;;;;;;;8.40;84.33;97668.73;2253729;79;20987;-83
2022/04/06 05:45:58;;;;;;;13.03;11.70;;;;;;;8.44;84.42;97673.95;2253394;79;21711;-82
2022/04/06 05:48:58;;;;;;;11.73;10.53;;;;;;;8.56;84.25;97683.07;2253433;79;21022;-81
2022/04/06 05:51:59;;;;;;;12.13;10.83;;;;;;;8.64;83.81;97677.88;2253100;79;21330;-84
2022/04/06 05:54:59;;;;;;;11.40;10.33;;;;;;;8.70;83.31;97683.55;2252903;79;20951;-81
2022/04/06 05:58:00;;;;;;;11.63;10.53;;;;;;;8.70;82.92;97687.02;2252781;79;21398;-82
2022/04/06 06:01:00;;;;;;;22.77;20.47;;;;;;;8.74;82.99;97686.16;2252501;79;20965;-83
2022/04/06 06:04:01;;;;;;;16.20;13.17;;;;;;;8.79;82.85;97688.32;2252011;79;20958;-81
2022/04/06 06:07:01;;;;;;;10.83;9.77;;;;;;;8.91;82.67;97688.76;2252388;79;20987;-81
2022/04/06 06:10:02;;;;;;;11.90;10.23;;;;;;;9.02;82.50;97693.96;2252259;79;20955;-81
2022/04/06 06:13:03;;;;;;;12.90;10.90;;;;;;;9.06;81.98;97686.58;2252591;78;21101;-81
2022/04/06 06:16:03;;;;;;;11.40;10.30;;;;;;;9.06;81.79;97691.79;2252718;79;21286;-81
2022/04/06 06:19:04;;;;;;;11.70;10.63;;;;;;;9.10;81.86;97696.12;2252445;79;20954;-80
2022/04/06 06:22:04;;;;;;;9.83;8.83;;;;;;;9.19;81.29;97690.91;2251584;79;20998;-81
2022/04/06 06:25:05;;;;;;;11.07;9.97;;;;;;;9.28;80.61;97692.63;2252823;79;20931;-82
2022/04/06 06:28:05;;;;;;;11.37;10.27;;;;;;;9.36;80.83;97696.96;2253034;79;20899;-81
2022/04/06 06:31:06;;;;;;;11.03;9.93;;;;;;;9.49;80.94;97697.37;2252108;79;20907;-82
2022/04/06 06:34:06;;;;;;;9.83;8.83;;;;;;;9.58;80.47;97698.69;2252511;79;21278;-81
2022/04/06 06:37:07;;;;;;;10.50;9.40;;;;;;;9.63;80.50;97696.50;2252802;79;20919;-81
2022/04/06 06:40:07;;;;;;;11.37;9.30;;;;;;;9.67;80.21;97696.48;2252465;79;20919;-81
2022/04/06 06:43:09;;;;;;;9.43;8.17;;;;;;;9.81;80.30;97692.53;2252718;79;20978;-79
2022/04/06 06:46:10;;;;;;;14.47;12.93;;;;;;;10.08;78.55;97698.07;2252491;79;20956;-81
2022/04/06 06:49:10;;;;;;;10.60;7.70;;;;;;;10.30;79.11;97699.73;2252961;79;20955;-81
2022/04/06 06:52:11;;;;;;;10.17;9.10;;;;;;;10.44;78.00;97694.47;2252771;79;20965;-81
2022/04/06 06:55:12;;;;;;;7.67;6.97;;;;;;;10.55;78.40;97691.80;2252561;79;20986;-80
2022/04/06 06:58:12;;;;;;;8.23;7.40;;;;;;;10.57;77.82;97701.34;2252496;79;20956;-81
2022/04/06 07:01:13;;;;;;;8.73;7.50;;;;;;;10.59;77.38;97703.95;2251237;79;21610;-80
2022/04/06 07:04:13;;;;;;;8.10;7.40;;;;;;;10.45;76.78;97704.03;2251317;79;21322;-80
2022/04/06 07:07:14;;;;;;;9.67;8.20;;;;;;;10.30;77.43;97708.86;2251630;79;20930;-80
2022/04/06 07:10:15;;;;;;;9.07;8.17;;;;;;;10.28;77.28;97708.00;2251785;79;20935;-80
2022/04/06 07:13:16;;;;;;;8.93;7.70;;;;;;;10.44;77.54;97707.52;2251731;79;21481;-80
2022/04/06 07:16:17;;;;;;;13.40;8.73;;;;;;;10.60;76.90;97701.33;2252207;79;20974;-81
2022/04/06 07:19:17;;;;;;;8.47;7.40;;;;;;;10.77;76.53;97706.44;2252140;79;20982;-81
2022/04/06 07:22:18;;;;;;;9.77;7.93;;;;;;;11.02;76.10;97700.58;2251510;79;21065;-81
2022/04/06 07:25:19;;;;;;;8.87;7.97;;;;;;;11.25;75.64;97706.91;2252109;79;20950;-80
2022/04/06 07:28:20;;;;;;;13.43;8.57;;;;;;;11.32;75.15;97713.41;2252133;79;20930;-80
2022/04/06 07:31:20;;;;;;;9.38;7.33;;;;;;;11.42;75.29;97713.75;2252832;79;21456;-80
2022/04/06 07:34:21;;;;;;;8.93;7.10;;;;;;;11.54;73.87;97706.67;2253215;79;20955;-81
2022/04/06 07:37:21;;;;;;;8.75;7.72;;;;;;;11.58;73.60;97701.39;2252958;79;20923;-76
2022/04/06 07:40:22;;;;;;;7.95;6.03;;;;;;;11.46;73.26;97715.89;2252891;79;20938;-80
2022/04/06 07:43:22;;;;;;;7.12;6.42;;;;;;;11.40;72.19;97718.12;2252959;79;20978;-81
2022/04/06 07:46:23;;;;;;;6.72;6.08;;;;;;;11.27;73.08;97715.20;2253947;79;20990;-82
2022/04/06 07:49:23;;;;;;;8.73;7.73;;;;;;;11.21;72.76;97720.44;2253537;79;20938;-80
2022/04/06 07:52:24;;;;;;;6.03;5.47;;;;;;;11.33;73.49;97725.59;2253447;79;20974;-79
2022/04/06 07:55:24;;;;;;;7.07;6.07;;;;;;;11.28;72.15;97726.52;2252971;79;21311;-80
2022/04/06 07:58:25;;;;;;;11.23;8.20;;;;;;;11.11;72.26;97733.15;2252861;79;21349;-80
2022/04/06 08:01:25;;;;;;;7.63;6.80;;;;;;;11.02;72.74;97737.14;2253018;79;21605;-81
2022/04/06 08:04:26;;;;;;;8.10;7.30;;;;;;;11.01;74.67;97738.02;2252701;79;20974;-81
2022/04/06 08:07:26;;;;;;;8.43;7.47;;;;;;;11.02;72.39;97747.15;2253608;79;20946;-80
2022/04/06 08:10:30;;;;;;;6.40;5.80;;;;;;;10.99;74.13;97744.56;2251305;79;20907;-80
2022/04/06 08:13:29;;;;;;;7.30;6.53;;;;;;;11.11;74.06;97747.52;2251357;79;21496;-83
2022/04/06 08:16:30;;;;;;;8.10;6.30;;;;;;;11.31;74.53;97745.64;2251686;79;20923;-81
2022/04/06 08:19:31;;;;;;;7.78;5.87;;;;;;;11.52;73.85;97741.97;2251957;79;20926;-82
2022/04/06 08:22:31;;;;;;;7.53;6.70;;;;;;;11.58;73.57;97748.88;2251945;79;21634;-80
2022/04/06 08:25:33;;;;;;;7.58;6.50;;;;;;;11.56;73.70;97749.34;2251781;79;20934;-80
2022/04/06 08:28:33;;;;;;;7.92;7.22;;;;;;;11.53;72.44;97748.92;2251474;79;20992;-80
2022/04/06 08:31:34;;;;;;;5.97;5.37;;;;;;;11.69;72.70;97749.20;2251209;79;20967;-81
2022/04/06 08:34:35;;;;;;;7.62;6.45;;;;;;;11.82;72.41;97742.12;2251818;79;20926;-81
2022/04/06 08:37:36;;;;;;;8.45;6.05;;;;;;;11.93;71.61;97748.55;2251808;79;20938;-80
2022/04/06 08:40:37;;;;;;;6.22;5.17;;;;;;;12.06;70.89;97749.70;2252129;79;20983;-81
2022/04/06 08:43:37;;;;;;;5.70;5.05;;;;;;;12.20;67.85;97757.42;2251668;79;20947;-80
2022/04/06 08:46:38;;;;;;;5.92;5.17;;;;;;;12.20;67.85;97757.42;2252583;79;20931;-81
2022/04/06 08:49:39;;;;;;;12.33;9.60;;;;;;;12.37;69.65;97751.98;2252828;79;20934;-82
2022/04/06 08:52:39;;;;;;;7.72;6.03;;;;;;;12.43;70.31;97749.28;2252678;79;20978;-79
2022/04/06 08:55:40;;;;;;;7.53;5.53;;;;;;;12.41;68.65;97751.92;2251991;79;20923;-81
2022/04/06 08:58:40;;;;;;;6.33;4.87;;;;;;;12.30;68.91;97755.56;2253216;79;20918;-83
2022/04/06 09:01:41;;;;;;;5.25;4.45;;;;;;;12.16;67.41;97754.86;2253065;79;20943;-82
2022/04/06 09:04:41;;;;;;;4.97;4.47;;;;;;;12.23;68.63;97758.70;2252418;79;21345;-80
2022/04/06 09:07:42;;;;;;;5.72;5.05;;;;;;;12.36;67.76;97759.41;2252557;79;21312;-80
2022/04/06 09:10:42;;;;;;;5.30;4.28;;;;;;;12.46;68.32;97753.61;2253076;79;21390;-81
2022/04/06 09:13:43;;;;;;;5.33;4.10;;;;;;;12.67;68.27;97753.33;2252016;78;21390;-81
2022/04/06 09:16:43;;;;;;;5.90;5.30;;;;;;;12.68;68.45;97755.06;2252547;79;21363;-82
2022/04/06 09:19:44;;;;;;;8.50;6.35;;;;;;;12.63;68.54;97747.71;2252138;79;20970;-81
2022/04/06 09:22:44;;;;;;;8.38;6.17;;;;;;;12.52;68.87;97747.86;2252001;79;20958;-81
2022/04/06 09:25:45;;;;;;;7.92;6.20;;;;;;;12.70;67.97;97750.66;2252493;79;20930;-81
2022/04/06 09:28:45;;;;;;;9.20;7.17;;;;;;;12.96;67.85;97745.91;2252808;79;20931;-80
2022/04/06 09:31:48;;;;;;;6.90;6.25;;;;;;;12.89;68.14;97747.34;2251899;79;20967;-83
2022/04/06 09:34:49;;;;;;;7.15;6.45;;;;;;;12.89;68.14;97747.34;2251670;79;21037;-81
2022/04/06 09:37:49;;;;;;;10.10;7.00;;;;;;;12.71;67.88;97747.16;2252234;79;20915;-80
2022/04/06 09:40:51;;;;;;;8.70;6.60;;;;;;;12.43;68.03;97734.89;2251948;79;20911;-81
2022/04/06 09:43:52;;;;;;;8.13;7.33;;;;;;;12.16;68.37;97753.11;2252415;79;21061;-82
2022/04/06 09:50:12;;;;;;;12.50;8.03;;;;;;;11.72;69.98;97745.69;2253030;79;20978;-79
2022/04/06 09:53:12;;;;;;;8.50;6.92;;;;;;;11.62;70.83;97754.06;2252623;79;21315;-82
2022/04/06 09:56:13;;;;;;;9.80;6.75;;;;;;;11.55;70.69;97748.91;2252464;79;21306;-82
2022/04/06 09:59:13;;;;;;;7.63;6.83;;;;;;;11.51;70.69;97753.73;2253103;79;21606;-82
2022/04/06 10:02:14;;;;;;;8.10;6.83;;;;;;;11.61;71.35;97756.25;2253084;79;20919;-81
2022/04/06 10:05:14;;;;;;;9.35;7.80;;;;;;;11.67;72.11;97754.88;2253375;79;20986;-81
2022/04/06 10:08:16;;;;;;;11.75;7.85;;;;;;;11.64;72.34;97761.89;2252993;79;20919;-81
2022/04/06 10:11:17;;;;;;;10.93;8.35;;;;;;;11.67;73.74;97767.09;2253800;79;21010;-83
2022/04/06 10:14:19;;;;;;;10.20;9.10;;;;;;;11.67;73.84;97769.70;2253506;79;21409;-83
2022/04/06 10:17:19;;;;;;;8.90;8.00;;;;;;;11.58;73.48;97761.95;2252858;79;20958;-84
2022/04/06 10:20:20;;;;;;;10.50;8.73;;;;;;;11.41;73.27;97763.41;2252370;79;21306;-84
2022/04/06 10:23:21;;;;;;;11.93;9.83;;;;;;;11.31;73.68;97762.63;2252493;79;20887;-82
2022/04/06 10:26:21;;;;;;;11.40;9.68;;;;;;;11.36;73.91;97755.61;2252877;79;21350;-81
2022/04/06 10:29:22;;;;;;;9.88;8.85;;;;;;;11.47;73.46;97757.69;2252058;79;21959;-83
2022/04/06 10:32:22;;;;;;;11.13;7.53;;;;;;;11.52;73.28;97763.31;2252263;79;21307;-83
2022/04/06 10:35:23;;;;;;;10.23;9.13;;;;;;;11.49;73.16;97762.46;2252591;79;21333;-81
2022/04/06 10:38:23;;;;;;;11.55;8.55;;;;;;;11.44;73.48;97759.46;2252554;79;20891;-81
2022/04/06 10:41:24;;;;;;;14.13;9.17;;;;;;;11.46;73.19;97757.27;2252079;79;20923;-82
2022/04/06 10:44:24;;;;;;;10.05;9.00;;;;;;;11.61;73.57;97747.55;2252647;79;20993;-82
2022/04/06 10:47:31;;;;;;;12.85;9.73;;;;;;;12.00;72.94;97744.55;2252821;79;20931;-82
2022/04/06 10:50:32;;;;;;;9.78;8.68;;;;;;;12.62;71.01;97741.61;2252571;79;21385;-81
2022/04/06 10:53:33;;;;;;;9.45;8.48;;;;;;;13.01;70.44;97744.56;2252487;79;20958;-81
2022/04/06 10:56:33;;;;;;;9.00;8.10;;;;;;;13.03;69.08;97738.41;2253340;79;20927;-82
2022/04/06 10:59:34;;;;;;;8.33;7.47;;;;;;;12.94;68.16;97741.59;2253859;79;20982;-80
2022/04/06 11:02:34;;;;;;;8.70;7.80;;;;;;;12.80;68.24;97744.85;2253061;79;20962;-84
2022/04/06 11:05:35;;;;;;;8.10;7.30;;;;;;;12.76;69.08;97744.03;2252529;79;20923;-81
2022/04/06 11:11:54;;;;;;;8.40;7.47;;;;;;;12.58;68.03;97736.44;2252336;79;20930;-80
2022/04/06 11:14:54;;;;;;;8.43;7.53;;;;;;;12.58;68.78;97733.38;2251500;79;20991;-78
2022/04/06 11:20:57;;;;;;;8.50;7.30;;;;;;;12.84;67.20;97724.28;2230808;79;20919;-78
2022/04/06 11:23:58;;;;;;;15.95;6.70;;;;;;;13.19;66.78;97727.28;2252709;79;21382;-79
2022/04/06 11:26:58;;;;;;;8.18;7.33;;;;;;;13.58;65.64;97719.63;2252462;79;20964;-81
2022/04/06 11:29:59;;;;;;;12.20;7.87;;;;;;;13.90;66.03;97715.98;2252913;79;20939;-81
2022/04/06 11:32:59;;;;;;;9.55;8.28;;;;;;;14.26;63.83;97715.69;2253227;79;20946;-80
2022/04/06 11:36:00;;;;;;;17.32;8.50;;;;;;;14.40;63.90;97711.91;2252194;79;20895;-79
2022/04/06 11:39:01;;;;;;;10.30;8.48;;;;;;;14.34;63.93;97715.53;2251635;79;21792;-80
2022/04/06 11:42:02;;;;;;;8.98;7.85;;;;;;;14.32;63.22;97707.69;2252395;79;21286;-80
2022/04/06 11:45:02;;;;;;;12.13;8.45;;;;;;;14.28;63.77;97706.48;2252944;79;21010;-80
2022/04/06 11:48:03;;;;;;;11.85;8.70;;;;;;;14.05;62.79;97710.88;2252832;79;20979;-81
2022/04/06 11:51:03;;;;;;;8.50;7.60;;;;;;;13.83;61.98;97705.16;2253408;79;20935;-79
2022/04/06 11:54:04;;;;;;;9.68;8.65;;;;;;;13.73;62.64;97706.67;2252140;79;20977;-81
2022/04/06 11:57:05;;;;;;;11.93;9.53;;;;;;;13.41;63.00;97708.13;2252342;79;20896;-80
2022/04/06 12:00:05;;;;;;;9.58;8.33;;;;;;;13.15;64.60;97715.08;2252198;79;20923;-79
2022/04/06 12:03:06;;;;;;;9.05;8.10;;;;;;;12.99;64.49;97709.64;2252418;79;20930;-79
2022/04/06 12:06:06;;;;;;;11.73;9.25;;;;;;;12.79;65.38;97707.77;2251814;79;21327;-79
2022/04/06 12:09:07;;;;;;;10.90;8.73;;;;;;;12.64;65.95;97717.58;2253121;79;21337;-79
2022/04/06 12:12:08;;;;;;;8.65;7.67;;;;;;;12.47;66.16;97712.16;2252454;79;21625;-80
2022/04/06 12:15:08;;;;;;;8.90;8.00;;;;;;;12.42;66.49;97716.15;2253017;79;21326;-81
2022/04/06 12:18:09;;;;;;;14.45;9.00;;;;;;;12.37;67.01;97709.67;2252417;79;20943;-81
2022/04/06 12:21:09;;;;;;;8.83;7.92;;;;;;;12.22;66.77;97716.41;2252985;79;20923;-80
2022/04/06 12:24:11;;;;;;;12.15;8.43;;;;;;;12.12;67.50;97715.63;2251599;79;20923;-81
2022/04/06 12:27:11;;;;;;;10.32;7.70;;;;;;;12.08;67.79;97716.99;2251270;79;21322;-81
2022/04/06 12:30:12;;;;;;;10.43;8.85;;;;;;;12.03;67.87;97722.72;2252103;79;20939;-80
2022/04/06 12:33:12;;;;;;;9.17;7.80;;;;;;;11.97;68.79;97717.56;2251904;79;20927;-80
2022/04/06 12:36:14;;;;;;;9.20;7.95;;;;;;;11.93;69.10;97719.34;2252004;79;20915;-80
2022/04/06 12:39:14;;;;;;;12.70;8.40;;;;;;;11.86;69.62;97719.43;2253166;79;21041;-79
2022/04/06 12:42:15;;;;;;;10.13;9.00;;;;;;;11.80;69.62;97717.31;2253440;79;21037;-80
2022/04/06 12:45:15;;;;;;;8.45;7.45;;;;;;;11.79;69.54;97706.42;2252643;79;20943;-80
2022/04/06 12:48:17;;;;;;;9.15;7.60;;;;;;;11.87;69.05;97705.03;2252558;79;20919;-80
2022/04/06 12:51:18;;;;;;;11.57;8.05;;;;;;;12.03;68.72;97698.73;2252675;79;20990;-80
2022/04/06 12:54:18;;;;;;;9.50;8.15;;;;;;;12.29;68.23;97688.41;2253159;79;20939;-79
2022/04/06 12:57:19;;;;;;;13.58;8.68;;;;;;;12.59;67.53;97685.81;2253373;79;20966;-79
2022/04/06 13:00:20;;;;;;;9.40;7.53;;;;;;;12.81;67.07;97685.05;2253718;79;20930;-80
2022/04/06 13:03:21;;;;;;;10.43;7.58;;;;;;;12.93;66.96;97683.09;2252872;79;20979;-80
2022/04/06 13:06:21;;;;;;;7.50;6.58;;;;;;;12.97;66.49;97682.61;2252630;79;21310;-81
2022/04/06 13:09:22;;;;;;;8.35;7.42;;;;;;;12.90;65.45;97675.73;2252513;79;21322;-80
2022/04/06 13:12:22;;;;;;;9.15;6.67;;;;;;;12.77;65.35;97677.69;2252357;79;21342;-80
2022/04/06 13:15:23;;;;;;;8.05;5.87;;;;;;;12.66;66.00;97668.69;2251399;79;20978;-77
2022/04/06 13:18:23;;;;;;;15.75;8.88;;;;;;;12.58;65.45;97664.01;2252205;79;20943;-81
2022/04/06 13:21:25;;;;;;;12.35;8.48;;;;;;;12.57;65.55;97668.82;2251022;79;20935;-81
2022/04/06 13:24:25;;;;;;;9.30;6.87;;;;;;;12.60;65.16;97671.39;2251526;79;20939;-82
2022/04/06 13:27:26;;;;;;;9.98;6.28;;;;;;;12.65;65.38;97658.23;2252250;79;21638;-80
2022/04/06 13:30:26;;;;;;;9.03;6.90;;;;;;;12.74;64.76;97662.02;2251940;79;21300;-79
2022/04/06 13:33:27;;;;;;;9.48;6.55;;;;;;;12.84;64.76;97663.61;2252591;79;20927;-80
2022/04/06 13:36:27;;;;;;;11.30;6.75;;;;;;;13.00;63.75;97661.19;2252824;79;20939;-80
2022/04/06 13:39:28;;;;;;;9.80;6.72;;;;;;;13.15;63.63;97657.45;2253021;79;20934;-80
2022/04/06 13:42:29;;;;;;;9.13;6.08;;;;;;;13.24;62.95;97657.31;2254434;79;20923;-83
2022/04/06 13:45:29;;;;;;;7.75;6.58;;;;;;;13.32;62.84;97656.73;2254199;79;21315;-79
2022/04/06 13:48:30;;;;;;;11.05;6.97;;;;;;;13.35;62.19;97655.37;2253578;79;20904;-83
2022/04/06 13:51:30;;;;;;;11.48;7.28;;;;;;;13.42;61.94;97651.33;2253509;79;20975;-81
2022/04/06 13:54:31;;;;;;;8.95;6.87;;;;;;;13.45;62.47;97647.34;2253452;79;20911;-84
2022/04/06 13:57:33;;;;;;;9.03;6.60;;;;;;;13.48;61.99;97647.28;2253630;79;20970;-81
2022/04/06 14:00:35;;;;;;;30.40;7.37;;;;;;;13.54;61.79;97636.67;2254063;79;20995;-82
2022/04/06 14:03:37;;;;;;;12.63;6.67;;;;;;;13.59;62.01;97638.77;2253529;79;21058;-83
2022/04/06 14:06:38;;;;;;;12.33;6.20;;;;;;;13.73;61.50;97632.80;2253867;79;21286;-83
2022/04/06 14:09:41;;;;;;;7.42;6.10;;;;;;;13.94;61.22;97628.91;2254254;79;20934;-83
2022/04/06 14:12:42;;;;;;;6.37;5.60;;;;;;;14.03;60.20;97624.33;2232217;79;31644;-84
2022/04/06 14:15:43;;;;;;;6.12;5.03;;;;;;;14.05;58.21;97629.55;2255167;79;21035;-83
2022/04/06 14:18:44;;;;;;;5.58;5.00;;;;;;;13.99;59.90;97617.87;2232924;79;20981;-81
2022/04/06 14:21:44;;;;;;;5.83;5.17;;;;;;;13.92;59.40;97614.52;2255540;79;20938;-83